Time;durP1;ratioP1;P1;durP2;ratioP2;P2;SDS_P1;SDS_P2;PMS_P1;PMS_P2;Temp;Humidity;BMP_temperature;BMP_pressure;BME280_temperature;BME280_humidity;BME280_pressure;Samples;Min_cycle;Max_cycle;Signal;HPM_P1;HPM_P2
2021/03/12 00:01:24;;;;;;;5.28;2.90;;;;;;;30.05;44.28;101229.56;5047992;28;70437;-33
2021/03/12 00:03:54;;;;;;;3.55;2.67;;;;;;;30.12;44.75;101235.81;5052448;28;67029;-32
2021/03/12 00:06:24;;;;;;;2.75;2.55;;;;;;;30.13;44.84;101232.06;5050790;28;69277;-33
2021/03/12 00:08:54;;;;;;;2.60;2.40;;;;;;;30.19;44.66;101233.94;5051657;28;66248;-32
2021/03/12 00:11:34;;;;;;;2.78;2.47;;;;;;;30.20;44.97;101227.50;5049649;28;70123;-33
2021/03/12 00:14:05;;;;;;;3.30;2.70;;;;;;;30.21;44.86;101234.56;5050111;28;67429;-33
2021/03/12 00:16:35;;;;;;;7.07;2.47;;;;;;;30.27;45.31;101244.59;5052015;28;69302;-32
2021/03/12 00:19:05;;;;;;;4.47;2.95;;;;;;;30.23;45.48;101237.94;5033526;28;65129;-32
2021/03/12 00:21:35;;;;;;;7.95;5.53;;;;;;;30.36;46.85;101252.50;5036568;28;68207;-32
2021/03/12 00:24:07;;;;;;;20.45;9.13;;;;;;;30.39;46.38;101252.09;5028623;28;67541;-31
2021/03/12 00:26:37;;;;;;;24.33;10.25;;;;;;;30.32;46.28;101254.81;5048879;28;69612;-31
2021/03/12 00:29:07;;;;;;;18.20;10.77;;;;;;;30.36;46.45;101260.63;5049287;28;67169;-33
2021/03/12 00:31:37;;;;;;;24.70;11.95;;;;;;;30.38;46.91;101261.25;5033082;28;68971;-33
2021/03/12 00:34:07;;;;;;;37.80;11.23;;;;;;;30.43;47.12;101258.78;5031140;28;65558;-32
2021/03/12 00:36:36;;;;;;;34.95;10.23;;;;;;;30.48;48.18;101264.41;5045922;28;68716;-34
2021/03/12 00:39:06;;;;;;;25.15;9.98;;;;;;;30.53;48.56;101272.69;5029547;28;65952;-33
2021/03/12 00:41:36;;;;;;;20.52;8.25;;;;;;;30.43;48.62;101275.84;5035099;28;70415;-33
2021/03/12 00:44:06;;;;;;;18.08;7.72;;;;;;;30.42;48.02;101276.03;5035814;28;66968;-33
2021/03/12 00:46:44;;;;;;;10.40;6.40;;;;;;;30.42;48.27;101278.75;5046397;28;69133;-34
2021/03/12 00:49:14;;;;;;;13.98;6.65;;;;;;;30.41;48.63;101285.19;5035875;28;65506;-33
2021/03/12 00:51:46;;;;;;;11.43;5.78;;;;;;;30.45;47.67;101281.88;5021996;28;70274;-33
2021/03/12 00:54:20;;;;;;;6.85;5.18;;;;;;;30.47;48.00;101287.06;5025572;28;65345;-34
2021/03/12 00:56:59;;;;;;;8.93;5.20;;;;;;;30.50;47.11;101286.66;5023948;28;69258;-34
2021/03/12 00:59:31;;;;;;;;;;;;;;;30.44;47.97;101293.72;5027914;28;66695;-32
2021/03/12 01:02:00;;;;;;;10.00;4.97;;;;;;;30.55;47.60;101295.00;5020969;28;69094;-33
2021/03/12 01:04:30;;;;;;;8.18;4.28;;;;;;;30.53;47.00;101294.34;5023652;28;66601;-33
2021/03/12 01:07:07;;;;;;;5.55;4.60;;;;;;;30.60;47.21;101299.78;5021739;28;70056;-33
2021/03/12 01:09:37;;;;;;;9.90;4.75;;;;;;;30.66;47.00;101297.06;5036885;28;65671;-33
2021/03/12 01:12:18;;;;;;;7.57;4.70;;;;;;;30.64;46.33;101295.63;5044180;28;69790;-33
2021/03/12 01:14:48;;;;;;;7.00;4.70;;;;;;;30.72;46.61;101300.81;5041984;28;65822;-34
2021/03/12 01:17:20;;;;;;;;;;;;;;;30.74;46.50;101315.00;5028462;28;69192;-34
2021/03/12 01:19:50;;;;;;;4.43;3.97;;;;;;;30.81;46.05;101321.25;5026397;28;66328;-34
2021/03/12 01:22:20;;;;;;;3.72;3.10;;;;;;;30.84;46.27;101311.88;5022694;28;70352;-32
2021/03/12 01:24:52;;;;;;;3.83;3.38;;;;;;;30.90;45.87;101320.00;5030765;28;66206;-34
2021/03/12 01:27:38;;;;;;;3.50;3.25;;;;;;;30.91;46.42;101316.25;5023935;28;69407;-32
2021/03/12 01:30:16;;;;;;;5.10;2.97;;;;;;;30.92;45.91;101322.50;5025521;28;65577;-34
2021/03/12 01:32:47;;;;;;;4.03;2.08;;;;;;;30.94;46.04;101333.97;5020946;28;70885;-33
2021/03/12 01:35:20;;;;;;;6.55;3.20;;;;;;;31.00;46.14;101335.81;5016426;28;65100;-34
2021/03/12 01:37:53;;;;;;;4.88;3.30;;;;;;;31.02;45.58;101336.47;5032806;28;69264;-32
2021/03/12 01:40:25;;;;;;;4.85;2.47;;;;;;;31.03;46.15;101335.41;5046602;28;65275;-35
2021/03/12 01:43:03;;;;;;;3.30;2.60;;;;;;;31.11;45.82;101342.47;5033659;28;69375;-34
2021/03/12 01:45:43;;;;;;;3.33;3.03;;;;;;;31.03;45.87;101340.00;5025937;28;65480;-33
2021/03/12 01:48:16;;;;;;;3.75;3.10;;;;;;;31.08;45.66;101338.31;5021518;28;70424;-34
2021/03/12 01:50:53;;;;;;;8.10;3.38;;;;;;;31.07;45.60;101333.94;5035613;28;65863;-35
2021/03/12 01:53:24;;;;;;;6.55;3.35;;;;;;;31.10;45.29;101341.66;5036016;28;69232;-33
2021/03/12 01:55:56;;;;;;;5.50;4.15;;;;;;;31.12;45.74;101345.00;5037450;28;66467;-33
2021/03/12 01:58:35;;;;;;;3.42;2.90;;;;;;;31.19;45.24;101342.25;5029648;28;69907;-33
2021/03/12 02:01:09;;;;;;;4.65;3.13;;;;;;;31.20;44.98;101345.78;5035774;28;64802;-34
2021/03/12 02:03:46;;;;;;;3.00;2.35;;;;;;;31.24;44.89;101347.88;5029070;28;69820;-41
2021/03/12 02:06:25;;;;;;;6.43;2.63;;;;;;;31.22;45.41;101343.72;5033904;28;66233;-33
2021/03/12 02:08:58;;;;;;;2.88;2.67;;;;;;;31.26;45.04;101350.38;5026853;28;69467;-32
2021/03/12 02:11:39;;;;;;;2.80;2.60;;;;;;;31.26;45.38;101351.22;5044217;28;66683;-36
2021/03/12 02:14:24;;;;;;;2.90;2.63;;;;;;;31.30;45.25;101351.63;5033573;28;68660;-33
2021/03/12 02:17:01;;;;;;;2.97;2.10;;;;;;;31.19;44.68;101327.88;5042784;28;67538;-35
2021/03/12 02:20:03;;;;;;;2.53;2.33;;;;;;;31.34;44.77;101352.84;5045903;28;70014;-35
2021/03/12 02:22:36;;;;;;;2.33;2.13;;;;;;;31.38;45.10;101351.44;5043047;28;64332;-33
2021/03/12 02:25:11;;;;;;;3.95;2.22;;;;;;;31.39;44.88;101358.50;5027766;28;70673;-34
2021/03/12 02:27:58;;;;;;;2.30;2.10;;;;;;;31.43;44.69;101348.09;5028112;28;65462;-34
2021/03/12 02:30:29;;;;;;;2.15;2.05;;;;;;;31.43;44.59;101348.91;5031963;28;69859;-33
2021/03/12 02:33:01;;;;;;;2.72;2.13;;;;;;;31.48;44.80;101350.97;5028244;28;65418;-34
2021/03/12 02:35:36;;;;;;;3.08;1.80;;;;;;;31.52;44.23;101347.63;5029870;28;69320;-34
2021/03/12 02:38:32;;;;;;;5.20;1.65;;;;;;;31.53;44.73;101352.00;5007175;28;65404;-34
2021/03/12 02:41:09;;;;;;;1.95;1.75;;;;;;;31.49;44.98;101339.94;5053987;28;69426;-33
2021/03/12 02:43:46;;;;;;;1.67;1.58;;;;;;;31.55;44.27;101344.50;5039270;28;66116;-34
2021/03/12 02:46:24;;;;;;;1.98;1.40;;;;;;;31.52;43.98;101336.78;5029179;28;71844;-34
2021/03/12 02:48:59;;;;;;;3.03;1.85;;;;;;;31.59;44.06;101340.31;5032584;28;66739;-35
2021/03/12 02:51:29;;;;;;;5.93;1.70;;;;;;;31.62;44.36;101349.88;5037098;28;69555;-33
2021/03/12 02:54:04;;;;;;;1.35;1.25;;;;;;;31.66;43.96;101334.03;5028280;28;65812;-34
2021/03/12 02:56:40;;;;;;;1.73;1.42;;;;;;;31.68;44.44;101332.78;5022911;28;69846;-34
2021/03/12 02:59:12;;;;;;;1.35;1.13;;;;;;;31.73;43.81;101334.81;5038394;28;65493;-34
2021/03/12 03:02:08;;;;;;;3.80;1.10;;;;;;;31.73;44.09;101329.38;4994197;28;68651;-34
2021/03/12 03:04:46;;;;;;;1.30;1.20;;;;;;;31.75;44.12;101338.16;5023165;28;65353;-35
2021/03/12 03:07:28;;;;;;;1.30;1.20;;;;;;;31.82;44.25;101328.94;5039782;28;69216;-34
2021/03/12 03:09:59;;;;;;;1.67;1.58;;;;;;;31.81;44.17;101321.00;5039742;28;65453;-33
2021/03/12 03:12:29;;;;;;;1.77;1.67;;;;;;;31.81;44.09;101323.72;5040084;28;69672;-33
2021/03/12 03:15:01;;;;;;;2.30;2.20;;;;;;;31.88;43.78;101324.53;5029085;28;65335;-34
2021/03/12 03:17:35;;;;;;;4.43;2.28;;;;;;;31.90;43.58;101308.88;5030552;28;69212;-32
2021/03/12 03:20:10;;;;;;;2.40;2.20;;;;;;;31.86;44.17;101307.63;5042340;28;65611;-32
2021/03/12 03:22:45;;;;;;;1.80;1.70;;;;;;;31.95;44.16;101306.34;5043253;28;69079;-33
2021/03/12 03:25:18;;;;;;;2.10;1.90;;;;;;;31.93;43.71;101297.63;5027762;28;66219;-33
2021/03/12 03:27:50;;;;;;;2.05;1.90;;;;;;;31.98;43.52;101305.94;5024215;28;69178;-33
2021/03/12 03:30:21;;;;;;;2.60;2.40;;;;;;;31.98;43.62;101292.38;5025592;28;66071;-33
2021/03/12 03:32:57;;;;;;;3.10;2.90;;;;;;;32.00;43.33;101295.69;5024479;28;69231;-33
2021/03/12 03:35:29;;;;;;;3.13;2.92;;;;;;;32.08;43.34;101296.47;5031476;28;66164;-33
2021/03/12 03:37:59;;;;;;;3.10;2.90;;;;;;;32.10;43.41;101280.81;5035874;28;69879;-33
2021/03/12 03:40:30;;;;;;;2.65;2.45;;;;;;;32.11;43.74;101283.31;5037247;28;66144;-34
2021/03/12 03:43:04;;;;;;;5.70;2.83;;;;;;;32.17;43.48;101276.16;5042210;28;69688;-34
2021/03/12 03:45:35;;;;;;;5.47;2.85;;;;;;;32.23;43.60;101269.84;5035323;28;65349;-34
2021/03/12 03:48:14;;;;;;;2.83;2.63;;;;;;;32.25;43.00;101262.31;5036371;28;69536;-33
2021/03/12 03:50:46;;;;;;;3.05;2.85;;;;;;;32.28;43.17;101256.44;5022742;28;64783;-33
2021/03/12 03:53:17;;;;;;;;;;;;;;;32.26;43.08;101253.13;5036665;28;69951;-33
2021/03/12 03:55:49;;;;;;;3.28;2.30;;;;;;;32.21;42.89;101220.41;5025660;28;65999;-34
2021/03/12 03:58:20;;;;;;;2.50;2.40;;;;;;;32.38;42.92;101240.50;5033758;28;69022;-34
2021/03/12 04:00:51;;;;;;;2.53;2.33;;;;;;;32.42;43.01;101230.84;5002713;28;66153;-34
2021/03/12 04:03:25;;;;;;;2.45;2.25;;;;;;;32.46;42.87;101225.84;5019088;28;70066;-34
2021/03/12 04:06:04;;;;;;;2.67;2.47;;;;;;;32.46;42.77;101221.25;5016145;28;66801;-34
2021/03/12 04:08:36;;;;;;;3.35;2.20;;;;;;;32.49;42.69;101218.09;5027692;28;69633;-34
2021/03/12 04:11:07;;;;;;;2.13;2.00;;;;;;;32.53;42.51;101220.34;5017403;28;66747;-33
2021/03/12 04:13:38;;;;;;;;;;;;;;;32.56;42.31;101214.47;5004293;28;68468;-34
2021/03/12 04:16:11;;;;;;;4.35;1.80;;;;;;;32.62;42.78;101206.25;5026517;28;65741;-33
2021/03/12 04:18:44;;;;;;;1.88;1.77;;;;;;;32.62;42.75;101208.97;5034368;28;69892;-34
2021/03/12 04:21:16;;;;;;;2.47;1.73;;;;;;;32.65;42.68;101196.81;5017763;28;65697;-33
2021/03/12 04:23:51;;;;;;;1.80;1.70;;;;;;;32.67;42.39;101189.28;5017008;28;69913;-36
2021/03/12 04:26:22;;;;;;;1.85;1.75;;;;;;;32.72;42.39;101189.44;5026610;28;65926;-33
2021/03/12 04:28:53;;;;;;;1.95;1.85;;;;;;;32.77;42.41;101184.16;5036845;28;71089;-35
2021/03/12 04:31:26;;;;;;;2.03;1.75;;;;;;;32.77;42.24;101173.28;5022660;28;65048;-34
2021/03/12 04:33:57;;;;;;;;;;;;;;;32.81;42.38;101179.94;5018561;28;69668;-32
2021/03/12 04:36:28;;;;;;;4.25;1.95;;;;;;;32.90;41.93;101167.72;5009214;28;66210;-34
2021/03/12 04:39:00;;;;;;;1.80;1.70;;;;;;;32.92;42.37;101168.28;5023587;28;69336;-33
2021/03/12 04:41:30;;;;;;;3.63;1.77;;;;;;;32.94;42.21;101163.47;5028590;28;66099;-33
2021/03/12 04:44:01;;;;;;;1.77;1.67;;;;;;;32.92;42.16;101146.56;5034710;28;69703;-33
2021/03/12 04:46:34;;;;;;;1.60;1.50;;;;;;;33.02;42.18;101151.50;5024186;28;66558;-33
2021/03/12 04:49:07;;;;;;;1.60;1.50;;;;;;;32.94;42.03;101141.72;5026532;28;69066;-35
2021/03/12 04:51:38;;;;;;;1.33;1.17;;;;;;;33.07;41.86;101148.94;5026303;28;65975;-33
2021/03/12 04:54:15;;;;;;;3.50;1.25;;;;;;;33.01;41.79;101119.09;5016989;28;70117;-35
2021/03/12 04:56:46;;;;;;;1.80;1.35;;;;;;;33.14;41.88;101136.06;5047078;28;66188;-33
2021/03/12 04:59:16;;;;;;;1.67;1.55;;;;;;;33.12;42.05;101132.75;5051256;28;69278;-33
2021/03/12 05:01:49;;;;;;;1.60;1.50;;;;;;;33.12;41.94;101130.03;5032505;28;65299;-34
2021/03/12 05:04:20;;;;;;;1.77;1.55;;;;;;;33.19;41.64;101127.22;5026746;28;69925;-34
2021/03/12 05:06:53;;;;;;;1.90;1.70;;;;;;;33.18;41.45;101120.13;5028016;28;66485;-34
2021/03/12 05:09:41;;;;;;;4.82;1.58;;;;;;;33.21;41.73;101116.97;5013518;28;70681;-34
2021/03/12 05:12:16;;;;;;;2.22;1.80;;;;;;;33.24;41.64;101116.50;5019618;28;66297;-34
2021/03/12 05:14:47;;;;;;;1.83;1.73;;;;;;;33.25;41.50;101110.00;5019983;28;69551;-34
2021/03/12 05:17:21;;;;;;;1.30;1.17;;;;;;;33.28;41.52;101109.53;5039230;28;66353;-34
2021/03/12 05:19:52;;;;;;;1.38;1.27;;;;;;;33.31;41.46;101100.91;5042965;28;69862;-34
2021/03/12 05:22:24;;;;;;;1.50;1.40;;;;;;;33.38;41.33;101096.22;5022883;28;65518;-32
2021/03/12 05:24:54;;;;;;;1.80;1.40;;;;;;;33.40;41.36;101090.53;5043051;28;69250;-34
2021/03/12 05:27:26;;;;;;;2.72;1.00;;;;;;;33.44;41.59;101090.91;5024154;28;65752;-34
2021/03/12 05:29:57;;;;;;;1.20;1.10;;;;;;;33.49;41.20;101082.84;5040301;28;69792;-34
2021/03/12 05:32:28;;;;;;;1.98;1.23;;;;;;;33.49;41.20;101074.69;5023780;28;65814;-36
2021/03/12 05:35:01;;;;;;;1.48;1.00;;;;;;;33.49;41.22;101061.09;5027845;28;70114;-33
2021/03/12 05:37:34;;;;;;;1.25;1.15;;;;;;;33.54;41.18;101066.69;5027886;28;65381;-33
2021/03/12 05:40:09;;;;;;;1.05;0.98;;;;;;;33.57;41.13;101064.34;5028746;28;70898;-33
2021/03/12 05:42:44;;;;;;;0.98;0.85;;;;;;;33.59;41.29;101066.81;5026064;28;66073;-35
2021/03/12 05:45:18;;;;;;;3.35;1.10;;;;;;;33.58;40.99;101059.75;5031276;28;68969;-34
2021/03/12 05:47:57;;;;;;;1.10;0.80;;;;;;;33.62;40.87;101060.91;5027473;28;65372;-33
2021/03/12 05:50:28;;;;;;;0.90;0.70;;;;;;;33.63;40.91;101059.88;5018879;28;69184;-34
2021/03/12 05:53:00;;;;;;;3.33;0.98;;;;;;;33.69;40.83;101039.88;5036704;28;66952;-33
2021/03/12 05:55:34;;;;;;;0.70;0.70;;;;;;;33.71;40.70;101035.03;5018530;28;70021;-34
2021/03/12 05:58:06;;;;;;;1.35;1.00;;;;;;;33.71;40.77;101032.31;5024202;28;64971;-33
2021/03/12 06:00:38;;;;;;;3.63;0.90;;;;;;;33.76;40.59;101024.25;5030550;28;69866;-34
2021/03/12 06:03:11;;;;;;;0.75;0.75;;;;;;;33.76;40.87;101024.25;5041975;28;66273;-35
2021/03/12 06:05:48;;;;;;;3.17;0.70;;;;;;;33.79;40.94;101022.94;5033582;28;70670;-34
2021/03/12 06:08:23;;;;;;;0.90;0.80;;;;;;;33.84;40.74;101017.63;5040069;28;65395;-34
2021/03/12 06:10:55;;;;;;;1.00;0.90;;;;;;;33.85;40.42;101015.72;5019586;28;70083;-34
2021/03/12 06:13:55;;;;;;;3.25;0.90;;;;;;;33.77;40.55;100987.00;5021086;28;65718;-34
2021/03/12 06:16:59;;;;;;;1.00;0.90;;;;;;;33.89;40.41;101001.44;5037518;28;70084;-35
2021/03/12 06:19:37;;;;;;;0.68;0.68;;;;;;;33.97;40.17;100992.91;5022914;28;65304;-33
2021/03/12 06:22:24;;;;;;;0.82;0.80;;;;;;;34.01;40.35;100982.34;5019791;28;70831;-33
2021/03/12 06:25:12;;;;;;;1.00;0.88;;;;;;;33.92;40.43;100972.91;5027927;28;65576;-33
2021/03/12 06:28:20;;;;;;;0.80;0.80;;;;;;;34.05;40.09;100967.25;5030903;28;70027;-33
2021/03/12 06:31:30;;;;;;;1.05;0.88;;;;;;;34.11;40.00;100966.28;5045516;28;66080;-34
2021/03/12 06:34:39;;;;;;;0.70;0.70;;;;;;;34.17;39.86;100953.59;4961153;28;70147;-35
2021/03/12 06:37:30;;;;;;;1.05;0.95;;;;;;;34.22;39.92;100945.53;4957954;28;66187;-34
2021/03/12 06:40:25;;;;;;;0.80;0.80;;;;;;;34.24;39.97;100946.09;5023269;28;70301;-33
2021/03/12 06:43:15;;;;;;;0.90;0.63;;;;;;;34.25;39.62;100945.88;5028568;28;66308;-34
2021/03/12 06:45:50;;;;;;;0.85;0.80;;;;;;;34.31;39.86;100945.97;5032977;28;69157;-33
2021/03/12 06:48:36;;;;;;;3.15;0.60;;;;;;;34.20;39.81;100926.69;5028232;28;65957;-33
2021/03/12 06:51:32;;;;;;;1.02;0.80;;;;;;;34.38;39.55;100930.31;5039159;28;70381;-34
2021/03/12 06:54:09;;;;;;;1.33;0.70;;;;;;;34.42;39.58;100923.31;5020692;28;65244;-33
2021/03/12 06:56:49;;;;;;;1.42;0.80;;;;;;;34.42;39.78;100918.69;5035988;28;70626;-34
2021/03/12 06:59:31;;;;;;;;;;;;;;;34.51;39.67;100921.03;5032739;28;66517;-34
2021/03/12 07:02:10;;;;;;;1.17;1.05;;;;;;;34.50;39.56;100908.50;5015242;28;70148;-33
2021/03/12 07:04:58;;;;;;;1.08;0.88;;;;;;;34.54;39.51;100910.44;5042058;28;66238;-34
2021/03/12 07:08:05;;;;;;;1.35;1.08;;;;;;;34.60;39.39;100898.63;5027069;28;69626;-34
2021/03/12 07:10:46;;;;;;;;;;;;;;;34.70;39.19;100898.78;5025725;28;66864;-34
2021/03/12 07:13:41;;;;;;;1.20;0.90;;;;;;;34.76;39.06;100896.16;5048353;28;69137;-34
2021/03/12 07:16:21;;;;;;;2.10;0.98;;;;;;;34.71;38.98;100883.25;5043027;28;66797;-36
2021/03/12 07:18:54;;;;;;;0.75;0.73;;;;;;;34.78;38.98;100885.84;5017185;28;69316;-34
2021/03/12 07:21:28;;;;;;;;;;;;;;;34.86;38.63;100882.72;5021670;28;64923;-33
2021/03/12 07:24:05;;;;;;;1.10;0.70;;;;;;;34.85;39.19;100867.41;5044041;28;69832;-35
2021/03/12 07:26:48;;;;;;;0.73;0.60;;;;;;;34.91;39.10;100872.72;5037225;28;66221;-34
2021/03/12 07:29:24;;;;;;;1.10;0.75;;;;;;;34.96;38.92;100874.69;5025014;28;69387;-34
2021/03/12 07:32:24;;;;;;;0.80;0.68;;;;;;;34.99;38.71;100866.00;5043288;28;65899;-34
2021/03/12 07:34:59;;;;;;;0.88;0.60;;;;;;;35.02;38.69;100862.81;5023190;28;70059;-34
2021/03/12 07:37:49;;;;;;;1.00;0.90;;;;;;;35.06;38.51;100849.53;5038689;28;67052;-33
2021/03/12 07:40:23;;;;;;;3.58;0.60;;;;;;;35.09;38.73;100852.56;5021357;28;69960;-35
2021/03/12 07:43:05;;;;;;;1.27;0.95;;;;;;;35.12;38.91;100851.25;5021054;28;66065;-34
2021/03/12 07:45:44;;;;;;;1.85;1.00;;;;;;;35.11;38.41;100847.69;5022074;28;69369;-34
2021/03/12 07:48:15;;;;;;;1.45;1.20;;;;;;;35.17;38.61;100847.78;5044029;28;66091;-34
2021/03/12 07:51:09;;;;;;;2.47;1.45;;;;;;;35.16;38.72;100829.75;5024080;28;70042;-34
2021/03/12 07:53:54;;;;;;;1.38;1.27;;;;;;;35.17;38.36;100834.97;5024027;28;65429;-33
2021/03/12 07:56:52;;;;;;;3.08;1.55;;;;;;;35.23;38.23;100833.97;5026219;28;70533;-34
2021/03/12 07:59:47;;;;;;;3.08;1.30;;;;;;;35.34;38.42;100843.94;5010975;28;66210;-33
2021/03/12 08:02:53;;;;;;;1.85;1.45;;;;;;;35.36;38.22;100835.50;5042834;28;70284;-35
2021/03/12 08:05:44;;;;;;;1.38;1.27;;;;;;;35.38;38.50;100838.78;5041980;28;66586;-34
2021/03/12 08:08:41;;;;;;;3.20;1.65;;;;;;;35.44;38.67;100832.34;5043625;28;69778;-35
2021/03/12 08:11:33;;;;;;;2.47;1.88;;;;;;;35.46;38.60;100835.63;5040644;28;66076;-34
2021/03/12 08:14:43;;;;;;;;;;;;;;;35.55;38.37;100825.94;5042391;28;70097;-33
2021/03/12 08:17:20;;;;;;;2.85;1.30;;;;;;;35.56;38.49;100824.88;5022648;28;65979;-34
2021/03/12 08:20:43;;;;;;;1.50;1.27;;;;;;;35.61;38.32;100828.72;5038145;28;70226;-34
2021/03/12 08:23:48;;;;;;;1.67;1.55;;;;;;;35.62;38.37;100808.56;5039353;28;66533;-34
2021/03/12 08:26:57;;;;;;;1.75;1.58;;;;;;;35.65;38.47;100827.97;5039263;28;69756;-34
2021/03/12 08:29:45;;;;;;;1.65;1.10;;;;;;;35.64;38.19;100814.63;5032564;28;65845;-36
2021/03/12 08:32:40;;;;;;;4.50;1.27;;;;;;;35.69;38.33;100823.69;5020386;28;70426;-36
2021/03/12 08:35:39;;;;;;;1.50;1.40;;;;;;;35.66;38.80;100823.34;5020214;28;65107;-34
2021/03/12 08:38:47;;;;;;;5.63;1.77;;;;;;;35.83;38.39;100824.13;4982395;28;70334;-34
2021/03/12 08:41:41;;;;;;;2.40;1.30;;;;;;;35.83;38.19;100829.56;4965242;28;65462;-34
2021/03/12 08:44:31;;;;;;;3.17;1.50;;;;;;;35.87;38.62;100835.34;5001599;28;69249;-33
2021/03/12 08:47:30;;;;;;;1.90;1.35;;;;;;;35.88;38.64;100832.34;5031407;28;66018;-35
2021/03/12 08:50:00;;;;;;;1.50;1.40;;;;;;;35.90;38.37;100835.66;5025145;28;70159;-34
2021/03/12 08:52:48;;;;;;;1.88;1.65;;;;;;;35.93;38.65;100837.84;5020327;28;66657;-34
2021/03/12 08:55:44;;;;;;;;;;;;;;;35.96;38.55;100823.69;5036757;28;69200;-35
2021/03/12 08:58:21;;;;;;;1.67;1.58;;;;;;;35.97;38.27;100814.44;5036634;28;65979;-34
2021/03/12 09:01:00;;;;;;;2.38;1.23;;;;;;;35.98;38.38;100821.53;5021458;28;70237;-33
2021/03/12 09:04:01;;;;;;;1.88;1.42;;;;;;;36.14;38.54;100835.41;5041986;28;66170;-33
2021/03/12 09:06:45;;;;;;;1.75;1.55;;;;;;;36.16;38.38;100844.13;5047888;28;70021;-35
2021/03/12 09:09:44;;;;;;;1.75;1.52;;;;;;;36.17;38.61;100848.53;5039034;28;66220;-35
2021/03/12 09:12:34;;;;;;;2.10;1.70;;;;;;;36.20;38.31;100861.66;5041537;28;70281;-35
2021/03/12 09:15:24;;;;;;;3.88;1.60;;;;;;;36.27;38.46;100859.53;5037866;28;66740;-34
2021/03/12 09:18:15;;;;;;;2.35;2.00;;;;;;;36.33;38.50;100864.00;5010510;28;69621;-37
2021/03/12 09:20:51;;;;;;;5.45;1.73;;;;;;;36.37;38.41;100862.38;5020766;28;66153;-35
2021/03/12 09:23:52;;;;;;;15.65;2.42;;;;;;;36.34;37.96;100865.63;5045521;28;69814;-33
2021/03/12 09:26:31;;;;;;;18.42;5.15;;;;;;;36.42;38.25;100869.81;5031364;28;65947;-37
2021/03/12 09:29:36;;;;;;;14.77;5.50;;;;;;;36.47;38.58;100867.94;5032598;28;69626;-34
2021/03/12 09:32:11;;;;;;;15.10;5.50;;;;;;;36.55;38.88;100868.56;5008305;28;65950;-35
2021/03/12 09:34:48;;;;;;;9.55;5.80;;;;;;;36.57;38.22;100874.59;5007593;28;69283;-34
2021/03/12 09:37:41;;;;;;;13.93;6.13;;;;;;;36.47;38.28;100857.03;5032357;28;66455;-34
2021/03/12 09:40:30;;;;;;;14.15;5.60;;;;;;;36.58;38.33;100870.78;5047256;28;70228;-34
2021/03/12 09:43:10;;;;;;;13.40;5.40;;;;;;;36.60;38.64;100876.81;5031419;28;65862;-35
2021/03/12 09:45:50;;;;;;;10.75;5.63;;;;;;;36.61;38.93;100875.72;5030493;28;69046;-34
2021/03/12 09:48:32;;;;;;;9.23;5.40;;;;;;;36.61;38.67;100873.00;5027601;28;66123;-34
2021/03/12 09:51:11;;;;;;;5.95;5.18;;;;;;;36.61;38.45;100867.53;5034669;28;69776;-36
2021/03/12 09:53:47;;;;;;;5.25;4.75;;;;;;;36.63;38.59;100876.28;5043760;28;66552;-34
2021/03/12 09:56:24;;;;;;;6.78;4.93;;;;;;;36.62;38.89;100880.13;5029621;28;69813;-35
2021/03/12 09:59:08;;;;;;;8.25;4.55;;;;;;;36.63;38.39;100884.50;5033369;28;66238;-35
2021/03/12 10:01:49;;;;;;;5.93;5.40;;;;;;;36.62;38.72;100880.94;5044330;28;69241;-34
2021/03/12 10:05:05;;;;;;;8.60;4.65;;;;;;;36.62;38.56;100889.16;5041402;28;65977;-34
2021/03/12 10:08:02;;;;;;;16.30;5.22;;;;;;;36.64;38.80;100886.16;5049021;28;70228;-34
2021/03/12 10:10:43;;;;;;;7.53;5.03;;;;;;;36.65;38.83;100880.41;5027507;28;65018;-36
2021/03/12 10:13:36;;;;;;;7.05;5.40;;;;;;;36.66;38.64;100881.25;5022623;28;69130;-36
2021/03/12 10:16:18;;;;;;;5.78;4.90;;;;;;;36.62;38.80;100874.66;5038790;28;65394;-37
2021/03/12 10:19:09;;;;;;;12.68;6.30;;;;;;;36.62;38.81;100885.59;5037999;28;70156;-37
2021/03/12 10:21:47;;;;;;;8.25;5.22;;;;;;;36.52;38.42;100869.06;5038811;28;65654;-36
2021/03/12 10:24:20;;;;;;;11.93;5.40;;;;;;;36.61;38.50;100886.66;5042450;28;69277;-35
2021/03/12 10:26:50;;;;;;;6.35;5.68;;;;;;;36.60;38.51;100890.47;5041263;28;66110;-35
2021/03/12 10:29:20;;;;;;;17.30;5.38;;;;;;;36.55;38.63;100885.78;5048239;28;70055;-34
2021/03/12 10:31:50;;;;;;;13.50;6.28;;;;;;;36.56;38.79;100883.91;5048801;28;65532;-36
2021/03/12 10:34:50;;;;;;;6.40;5.75;;;;;;;36.52;38.92;100880.00;5040289;28;69496;-34
2021/03/12 10:37:23;;;;;;;11.57;5.68;;;;;;;36.45;38.56;100875.56;5037248;28;65367;-35
2021/03/12 10:39:53;;;;;;;9.95;5.30;;;;;;;36.52;38.71;100897.19;5047594;28;69862;-35
2021/03/12 10:42:28;;;;;;;9.30;5.38;;;;;;;36.49;38.96;100913.31;5039563;28;65701;-35
2021/03/12 10:45:00;;;;;;;11.65;5.55;;;;;;;36.48;38.72;100912.47;5047270;28;70880;-35
2021/03/12 10:47:31;;;;;;;8.52;5.50;;;;;;;36.43;38.95;100915.16;5043168;28;65821;-34
2021/03/12 10:50:18;;;;;;;9.07;5.50;;;;;;;36.34;38.83;100901.13;5042391;28;69037;-35
2021/03/12 10:52:49;;;;;;;7.18;5.47;;;;;;;36.41;38.56;100929.09;5045579;28;66130;-35
2021/03/12 10:55:19;;;;;;;10.32;5.25;;;;;;;36.39;38.62;100925.78;5043643;28;70296;-33
2021/03/12 10:57:49;;;;;;;7.20;5.30;;;;;;;36.35;39.05;100932.81;5046159;28;65399;-35
2021/03/12 11:00:22;;;;;;;7.40;5.20;;;;;;;36.26;38.99;100915.25;5041977;28;70355;-35
2021/03/12 11:02:57;;;;;;;13.07;6.45;;;;;;;36.18;39.43;100929.38;5046810;28;66136;-35
2021/03/12 11:05:31;;;;;;;19.15;6.22;;;;;;;35.94;39.83;100935.06;5049692;28;70312;-36
2021/03/12 11:08:01;;;;;;;19.85;6.35;;;;;;;35.81;40.82;100943.63;5043621;28;66783;-36
2021/03/12 11:10:31;;;;;;;18.20;6.40;;;;;;;35.67;41.00;100934.97;5039758;28;69220;-38
2021/03/12 11:13:01;;;;;;;22.13;6.38;;;;;;;35.56;41.51;100933.19;5054543;28;66658;-38
2021/03/12 11:15:31;;;;;;;13.18;6.68;;;;;;;35.49;42.46;100944.22;5041244;28;69255;-36
2021/03/12 11:18:01;;;;;;;16.75;6.47;;;;;;;35.42;42.85;100946.31;5043763;28;66341;-38
2021/03/12 11:20:31;;;;;;;14.55;6.32;;;;;;;35.39;43.10;100946.00;5038847;28;69134;-36
2021/03/12 11:23:01;;;;;;;17.42;6.00;;;;;;;35.30;43.46;100946.44;5039729;28;65609;-35
2021/03/12 11:25:31;;;;;;;12.73;6.30;;;;;;;35.27;43.37;100946.06;5040962;28;69867;-35
2021/03/12 11:28:03;;;;;;;18.90;7.47;;;;;;;35.20;42.64;100945.44;5047838;28;66339;-35
2021/03/12 11:30:33;;;;;;;;;;;;;;;35.10;43.96;100963.28;5046764;28;70123;-34
2021/03/12 11:33:03;;;;;;;17.85;6.80;;;;;;;35.18;43.76;100953.03;5039612;28;66372;-36
2021/03/12 11:35:33;;;;;;;16.75;6.57;;;;;;;35.13;43.72;100957.34;5043324;28;70006;-37
2021/03/12 11:38:04;;;;;;;6.35;5.45;;;;;;;35.01;43.84;100944.81;5041697;28;66504;-37
2021/03/12 11:40:34;;;;;;;6.47;4.75;;;;;;;35.01;44.03;100956.53;5045553;28;69780;-35
2021/03/12 11:43:06;;;;;;;6.43;5.55;;;;;;;35.01;44.05;100964.72;5044587;28;65557;-36
2021/03/12 11:45:36;;;;;;;10.90;5.47;;;;;;;34.97;44.09;100973.66;5025858;28;69215;-36
2021/03/12 11:48:07;;;;;;;9.25;5.40;;;;;;;34.96;43.80;100978.25;5037414;28;66080;-35
2021/03/12 11:50:38;;;;;;;11.73;5.27;;;;;;;34.95;43.69;100975.78;5045067;28;70258;-37
2021/03/12 11:53:08;;;;;;;6.78;4.90;;;;;;;34.89;44.27;100980.31;5038184;28;65772;-34
2021/03/12 11:55:38;;;;;;;8.07;4.68;;;;;;;34.80;44.59;100976.31;5019830;28;70439;-36
2021/03/12 11:58:08;;;;;;;9.75;5.53;;;;;;;34.80;44.29;100979.06;5041829;28;66072;-34
2021/03/12 12:00:39;;;;;;;7.23;5.37;;;;;;;34.86;44.68;100994.44;5041303;28;69995;-36
2021/03/12 12:03:09;;;;;;;8.05;5.03;;;;;;;34.83;44.06;100994.94;5041412;28;66093;-35
2021/03/12 12:05:39;;;;;;;9.07;5.20;;;;;;;34.74;44.83;100988.22;5041667;28;70256;-36
2021/03/12 12:08:09;;;;;;;6.50;4.55;;;;;;;34.66;43.99;101000.34;5048522;28;65241;-35
2021/03/12 12:10:39;;;;;;;8.70;4.65;;;;;;;34.52;43.25;101005.22;5045782;28;70108;-36
2021/03/12 12:13:09;;;;;;;5.03;3.85;;;;;;;34.43;42.54;101018.38;5050004;28;65359;-35
2021/03/12 12:15:40;;;;;;;7.28;3.88;;;;;;;34.34;42.25;101013.56;5042809;28;69529;-37
2021/03/12 12:18:11;;;;;;;5.20;3.90;;;;;;;34.20;41.65;101013.81;5044500;28;66231;-39